createdAt,value
2022-12-17T00:02:11.979Z,101085.78
2022-12-17T00:07:27.127Z,101079.06
2022-12-17T00:12:43.864Z,101085.78
2022-12-17T00:17:59.283Z,101074.78
2022-12-17T00:23:18.590Z,101072.31
2022-12-17T00:28:35.577Z,101068.03
2022-12-17T00:33:51.026Z,101060.13
2022-12-17T00:39:07.316Z,101070.34
2022-12-17T00:44:24.274Z,101063.09
2022-12-17T00:49:39.399Z,101056.13
2022-12-17T00:54:54.533Z,101055.09
2022-12-17T01:00:13.675Z,101051.47
2022-12-17T01:05:29.902Z,101061.91
2022-12-17T01:10:45.284Z,101047.78
2022-12-17T01:16:03.992Z,101045.94
2022-12-17T01:21:19.514Z,101031.16
2022-12-17T01:26:35.185Z,101022.53
2022-12-17T01:31:52.366Z,101016.56
2022-12-17T01:37:07.645Z,101022.44
2022-12-17T01:42:23.235Z,101020.09
2022-12-17T01:47:40.352Z,101027.06
2022-12-17T01:52:54.914Z,101014.13
2022-12-17T01:58:10.531Z,101004.75
2022-12-17T02:03:32.293Z,101003.25
2022-12-17T02:08:52.413Z,101009.41
2022-12-17T02:14:18.187Z,101014.09
2022-12-17T02:19:38.520Z,101003.03
2022-12-17T02:24:59.010Z,101000.47
2022-12-17T02:30:18.668Z,101002.09
2022-12-17T02:35:35.950Z,100996.63
2022-12-17T02:40:51.986Z,100988.66
2022-12-17T02:46:09.340Z,100980.28
2022-12-17T02:51:25.338Z,100998.84
2022-12-17T02:56:40.944Z,101008.91
2022-12-17T03:01:58.367Z,101001.84
2022-12-17T03:07:13.996Z,100998.34
2022-12-17T03:12:31.263Z,101001.91
2022-12-17T03:17:48.969Z,100955.63
2022-12-17T03:23:12.542Z,100946.97
2022-12-17T03:28:29.311Z,100926.38
2022-12-17T03:33:49.169Z,100936.16
2022-12-17T03:39:06.592Z,100928.81
2022-12-17T03:44:22.384Z,100927.28
2022-12-17T03:49:39.341Z,100933.22
2022-12-17T03:54:54.369Z,100908.03
2022-12-17T04:00:09.665Z,100929.31
2022-12-17T04:05:29.492Z,100901.09
2022-12-17T04:10:44.919Z,100908.22
2022-12-17T04:16:00.388Z,100916.78
2022-12-17T04:21:17.513Z,100911.69
2022-12-17T04:26:32.814Z,100914.19
2022-12-17T04:31:48.479Z,100906.53
2022-12-17T04:37:05.573Z,100887.00
2022-12-17T04:42:21.246Z,100884.38
2022-12-17T04:47:36.596Z,100887.84
2022-12-17T04:52:53.270Z,100903.25
2022-12-17T04:58:08.331Z,100924.19
2022-12-17T05:03:24.106Z,100939.88
2022-12-17T05:08:41.665Z,100952.19
2022-12-17T05:13:57.447Z,100981.19
2022-12-17T05:19:13.173Z,100979.94
2022-12-17T05:24:30.279Z,100972.06
2022-12-17T05:29:45.933Z,100974.84
2022-12-17T05:35:01.503Z,100964.91
2022-12-17T05:40:18.079Z,100993.25
2022-12-17T05:45:42.009Z,100992.38
2022-12-17T05:50:57.216Z,101006.16
2022-12-17T05:56:25.677Z,100996.81
2022-12-17T06:01:41.363Z,100980.25
2022-12-17T06:06:56.776Z,100981.03
2022-12-17T06:12:28.457Z,100968.72
2022-12-17T06:17:44.210Z,100936.00
2022-12-17T06:22:59.245Z,100944.63
2022-12-17T06:28:19.709Z,100918.03
2022-12-17T06:33:35.233Z,100916.16
2022-12-17T06:38:51.314Z,100912.66
2022-12-17T06:44:08.400Z,100899.91
2022-12-17T06:49:23.566Z,100915.19
2022-12-17T06:54:38.932Z,100916.38
2022-12-17T06:59:55.830Z,100924.00
2022-12-17T07:05:11.216Z,100921.97
2022-12-17T07:10:26.746Z,100923.56
2022-12-17T07:15:43.740Z,100925.91
2022-12-17T07:20:59.345Z,100909.19
2022-12-17T07:26:15.591Z,100884.03
2022-12-17T07:31:29.022Z,100918.72
2022-12-17T07:36:44.717Z,100899.13
2022-12-17T07:41:59.996Z,100942.13
2022-12-17T07:47:17.214Z,100928.59
2022-12-17T07:52:32.903Z,100960.81
2022-12-17T07:57:48.449Z,101027.44
2022-12-17T08:03:05.560Z,101137.72
2022-12-17T08:08:22.102Z,101220.06
2022-12-17T08:13:37.888Z,101234.88
2022-12-17T08:18:55.009Z,101248.91
2022-12-17T08:24:10.238Z,101255.97
2022-12-17T08:29:25.891Z,101239.31
2022-12-17T08:34:42.724Z,101253.13
2022-12-17T08:39:57.949Z,101239.97
2022-12-17T08:45:13.072Z,101241.91
2022-12-17T08:50:30.083Z,101238.50
2022-12-17T08:55:45.388Z,101243.03
2022-12-17T09:01:01.016Z,101246.28
2022-12-17T09:06:17.785Z,101239.22
2022-12-17T09:11:33.107Z,101251.19
2022-12-17T09:16:49.135Z,101268.56
2022-12-17T09:22:14.522Z,101271.03
2022-12-17T09:27:30.312Z,101297.19
2022-12-17T09:32:46.665Z,101245.72
2022-12-17T09:38:10.377Z,101236.56
2022-12-17T09:43:48.840Z,101181.78
2022-12-17T09:49:11.242Z,101162.06
2022-12-17T09:54:48.093Z,101222.47
2022-12-17T10:00:03.600Z,101207.16
2022-12-17T10:05:32.814Z,101141.31
2022-12-17T10:10:51.159Z,101099.53
2022-12-17T10:16:06.307Z,101080.31
2022-12-17T10:21:26.892Z,101080.09
2022-12-17T10:26:44.823Z,101074.41
2022-12-17T10:32:00.261Z,101133.97
2022-12-17T10:37:16.011Z,101126.66
2022-12-17T10:42:40.226Z,101120.56
2022-12-17T10:48:02.675Z,101132.97
2022-12-17T10:53:18.679Z,101148.09
2022-12-17T10:58:39.743Z,101156.88
2022-12-17T11:03:58.391Z,101175.28
2022-12-17T11:09:14.335Z,101145.09
2022-12-17T11:14:47.518Z,101135.31
2022-12-17T11:20:05.027Z,101074.31
2022-12-17T11:25:22.622Z,101047.50
2022-12-17T11:30:39.577Z,101040.78
2022-12-17T11:36:00.403Z,101057.72
2022-12-17T11:41:21.782Z,101058.66
2022-12-17T11:46:46.960Z,101085.66
2022-12-17T11:52:06.572Z,101103.00
2022-12-17T11:57:27.321Z,101155.28
2022-12-17T12:02:53.728Z,101138.97
2022-12-17T12:08:13.986Z,101124.81
2022-12-17T12:13:32.177Z,101135.81
2022-12-17T12:18:57.174Z,101120.94
2022-12-17T12:24:20.965Z,101112.47
2022-12-17T12:29:44.762Z,101095.94
2022-12-17T12:35:02.061Z,101100.75
2022-12-17T12:40:21.277Z,101050.47
2022-12-17T12:45:51.146Z,101061.63
2022-12-17T12:51:13.106Z,101075.63
2022-12-17T12:56:43.908Z,101097.44
2022-12-17T13:01:59.706Z,101130.59
2022-12-17T13:06:59.179Z,101139.44
2022-12-17T13:11:58.671Z,101115.06
2022-12-17T13:16:58.924Z,101060.81
2022-12-17T13:21:56.783Z,101101.81
2022-12-17T13:26:56.107Z,101116.03
2022-12-17T13:32:03.166Z,101144.88
2022-12-17T13:37:03.105Z,101149.88
2022-12-17T13:42:02.763Z,101161.97
2022-12-17T13:47:01.129Z,101160.31
2022-12-17T13:52:06.458Z,101165.28
2022-12-17T13:57:10.413Z,101167.56
2022-12-17T14:02:08.624Z,101186.50
2022-12-17T14:07:07.075Z,101198.59
2022-12-17T14:12:25.062Z,101191.19
2022-12-17T14:17:25.611Z,101205.94
2022-12-17T14:22:26.444Z,101224.75
2022-12-17T14:27:25.957Z,101236.69
2022-12-17T14:32:26.390Z,101236.50
2022-12-17T14:37:25.867Z,101244.06
2022-12-17T14:42:29.615Z,101250.19
2022-12-17T14:47:30.672Z,101254.88
2022-12-17T14:52:33.735Z,101260.38
2022-12-17T14:57:31.675Z,101273.66
2022-12-17T15:02:34.204Z,101285.81
2022-12-17T15:07:32.919Z,101296.84
2022-12-17T15:12:37.094Z,101307.81
2022-12-17T15:17:36.332Z,101315.16
2022-12-17T15:22:34.139Z,101322.78
2022-12-17T15:27:32.004Z,101327.31
2022-12-17T15:32:30.112Z,101330.03
2022-12-17T15:37:29.427Z,101342.34
2022-12-17T15:42:45.736Z,101364.56
2022-12-17T15:47:43.763Z,101378.38
2022-12-17T15:52:42.957Z,101387.94
2022-12-17T15:57:40.832Z,101394.66
2022-12-17T16:02:38.802Z,101416.69
2022-12-17T16:07:37.985Z,101444.22
2022-12-17T16:12:37.263Z,101452.50
2022-12-17T16:17:36.178Z,101451.66
2022-12-17T16:22:34.203Z,101464.16
2022-12-17T16:27:32.147Z,101490.69
2022-12-17T16:32:36.077Z,101497.00
2022-12-17T16:37:34.414Z,101496.97
2022-12-17T16:42:32.300Z,101497.03
2022-12-17T16:47:31.786Z,101508.88
2022-12-17T16:52:29.760Z,101523.28
2022-12-17T16:57:27.615Z,101513.81
2022-12-17T17:02:25.822Z,101523.84
2022-12-17T17:07:25.737Z,101542.31
2022-12-17T17:12:25.539Z,101545.56
2022-12-17T17:17:54.488Z,101550.69
2022-12-17T17:22:43.040Z,101544.94
2022-12-17T17:27:40.897Z,101560.72
2022-12-17T17:32:38.915Z,101576.47
2022-12-17T17:37:36.839Z,101584.28
2022-12-17T17:42:36.139Z,101592.66
2022-12-17T17:47:34.565Z,101603.41
2022-12-17T17:52:33.102Z,101610.16
2022-12-17T17:57:31.045Z,101616.47
2022-12-17T18:02:30.556Z,101605.63
2022-12-17T18:07:28.684Z,101612.47
2022-12-17T18:12:44.825Z,101619.34
2022-12-17T18:17:44.164Z,101632.22
2022-12-17T18:22:43.813Z,101627.59
2022-12-17T18:27:42.662Z,101625.75
2022-12-17T18:32:40.507Z,101620.38
2022-12-17T18:37:40.180Z,101621.28
2022-12-17T18:42:55.795Z,101628.34
2022-12-17T18:47:53.814Z,101647.09
2022-12-17T18:52:53.195Z,101658.19
2022-12-17T18:57:51.058Z,101667.34
2022-12-17T19:02:49.574Z,101673.28
2022-12-17T19:07:47.628Z,101683.22
2022-12-17T19:12:46.784Z,101693.41
2022-12-17T19:17:44.881Z,101693.84
2022-12-17T19:22:42.778Z,101682.50
2022-12-17T19:27:40.703Z,101706.00
2022-12-17T19:32:42.958Z,101712.66
2022-12-17T19:37:40.811Z,101705.72
2022-12-17T19:42:38.954Z,101716.38
2022-12-17T19:47:36.861Z,101721.13
2022-12-17T19:52:36.069Z,101728.94
2022-12-17T19:57:35.275Z,101731.44
2022-12-17T20:02:33.486Z,101747.00
2022-12-17T20:07:31.577Z,101773.19
2022-12-17T20:12:31.279Z,101787.91
2022-12-17T20:17:29.295Z,101779.44
2022-12-17T20:22:27.187Z,101789.06
2022-12-17T20:27:25.063Z,101799.00
2022-12-17T20:32:24.758Z,101796.53
2022-12-17T20:37:22.785Z,101803.59
2022-12-17T20:42:20.623Z,101817.88
2022-12-17T20:47:18.761Z,101837.72
2022-12-17T20:52:18.245Z,101838.91
2022-12-17T20:57:16.128Z,101841.28
2022-12-17T21:02:14.192Z,101846.25
2022-12-17T21:07:12.244Z,101850.09
2022-12-17T21:12:13.708Z,101851.03
2022-12-17T21:17:11.949Z,101855.59
2022-12-17T21:22:12.582Z,101867.63
2022-12-17T21:27:14.908Z,101869.56
2022-12-17T21:32:13.110Z,101887.28
2022-12-17T21:37:12.219Z,101890.28
2022-12-17T21:42:29.091Z,101890.25
2022-12-17T21:47:27.092Z,101891.72
2022-12-17T21:52:25.019Z,101892.84
2022-12-17T21:57:24.362Z,101883.38
2022-12-17T22:02:22.426Z,101891.88
2022-12-17T22:07:27.875Z,101896.19
2022-12-17T22:12:52.379Z,101906.59
2022-12-17T22:17:51.228Z,101915.81
2022-12-17T22:22:51.072Z,101919.69
2022-12-17T22:27:50.472Z,101938.13
2022-12-17T22:33:00.775Z,101933.94
2022-12-17T22:39:56.838Z,101935.72
2022-12-17T22:44:42.957Z,101953.00
2022-12-17T22:48:57.508Z,101948.53
2022-12-17T22:53:55.518Z,101959.06
2022-12-17T22:58:54.925Z,101957.44
2022-12-17T23:03:55.420Z,101971.97
2022-12-17T23:08:54.868Z,101976.75
2022-12-17T23:13:55.073Z,101981.34
2022-12-17T23:18:53.623Z,101987.63
2022-12-17T23:23:51.718Z,102017.97
2022-12-17T23:28:49.974Z,102037.81
2022-12-17T23:33:49.448Z,102036.00
2022-12-17T23:38:47.631Z,102040.25
2022-12-17T23:43:46.258Z,102040.63
2022-12-17T23:48:46.038Z,102047.53
2022-12-17T23:53:45.482Z,102046.72
2022-12-17T23:58:43.974Z,102051.94
